チューク諸島 の空港の天気 - METARとTAF

チューク国際空港 ( PTKK / TKK ) - ミクロネシア連邦 チューク諸島
飛行場実況気象(Metar)
観測時間04/25 15:50 +10 (04/25 05:50 UTC)
風向・風速不定 2m/s
視程10km以上
天気現象
全天の4割程度の雲 雲底高度 370m
全天の8割程度の雲 雲底高度 3660m
全天を覆う雲 雲底高度 8530m
気温30℃
湿度84%
気圧1006.4hPa
METARPTKK 250550Z VRB04KT 15SM SCT012TCU BKN120 OVC280 30/27 A2971 RMK TCU SE-S-SW SLP064 60001 8/271 T03000270 10316 20281 55014
過去の天気等 Google飛行場航空写真 Wunderground天気予報

過去48時間のMETAR

飛行場予報(TAF)
発表時間: 4/25 15:27 +10 (4/25 05:27 UTC)
予報対象時間: 25日16時 +10 ~ 26日16時 +10
風向・風速不定 3m/s
視程10km以上
天気現象周辺でしゅう雨
全天の4割程度の雲 雲底高度 370m
全天の4割程度の雲 雲底高度 3,660m
PTKK 250527Z 2506/2606 VRB05KT P6SM VCSH SCT012 SCT120